createdAt,value
2022-11-10T00:02:33.442Z,6.60
2022-11-10T00:05:18.852Z,6.50
2022-11-10T00:08:11.431Z,6.30
2022-11-10T00:10:57.904Z,6.30
2022-11-10T00:14:01.958Z,7.50
2022-11-10T00:17:02.615Z,6.00
2022-11-10T00:19:47.742Z,6.70
2022-11-10T00:22:35.989Z,6.40
2022-11-10T00:25:21.673Z,6.60
2022-11-10T00:28:07.217Z,6.20
2022-11-10T00:30:52.720Z,6.00
2022-11-10T00:33:40.811Z,5.30
2022-11-10T00:36:26.313Z,5.70
2022-11-10T00:39:12.276Z,5.80
2022-11-10T00:41:58.242Z,5.60
2022-11-10T00:44:43.836Z,6.50
2022-11-10T00:47:29.248Z,5.50
2022-11-10T00:50:14.911Z,5.50
2022-11-10T00:53:00.572Z,7.30
2022-11-10T00:55:46.190Z,4.80
2022-11-10T00:58:31.426Z,5.40
2022-11-10T01:01:19.458Z,5.10
2022-11-10T01:04:05.289Z,5.10
2022-11-10T01:06:52.847Z,5.70
2022-11-10T01:09:38.783Z,6.00
2022-11-10T01:12:23.971Z,5.20
2022-11-10T01:15:10.274Z,5.50
2022-11-10T01:17:57.068Z,5.30
2022-11-10T01:20:42.475Z,5.50
2022-11-10T01:23:28.481Z,4.20
2022-11-10T01:26:15.077Z,4.30
2022-11-10T01:29:00.560Z,4.70
2022-11-10T01:31:50.770Z,4.50
2022-11-10T01:34:36.040Z,4.90
2022-11-10T01:37:21.719Z,5.40
2022-11-10T01:40:08.380Z,4.30
2022-11-10T01:42:57.811Z,5.50
2022-11-10T01:45:54.572Z,4.30
2022-11-10T01:48:52.953Z,3.50
2022-11-10T01:51:48.053Z,4.30
2022-11-10T01:54:42.789Z,4.10
2022-11-10T01:57:28.363Z,3.40
2022-11-10T02:00:14.209Z,3.20
2022-11-10T02:03:22.064Z,3.70
2022-11-10T02:06:09.346Z,3.30
2022-11-10T02:08:58.766Z,2.80
2022-11-10T02:11:44.724Z,3.90
2022-11-10T02:14:30.168Z,4.00
2022-11-10T02:17:16.220Z,3.10
2022-11-10T02:20:06.687Z,2.70
2022-11-10T02:22:51.873Z,1.90
2022-11-10T02:25:37.775Z,2.00
2022-11-10T02:28:25.081Z,3.40
2022-11-10T02:31:10.667Z,2.60
2022-11-10T02:33:56.285Z,2.50
2022-11-10T02:36:41.888Z,2.40
2022-11-10T02:39:27.423Z,2.60
2022-11-10T02:42:12.762Z,3.60
2022-11-10T02:44:58.302Z,1.80
2022-11-10T02:47:43.629Z,2.10
2022-11-10T02:50:29.012Z,2.40
2022-11-10T02:53:14.374Z,2.80
2022-11-10T02:55:59.836Z,2.40
2022-11-10T02:58:45.142Z,2.30
2022-11-10T03:01:30.713Z,2.30
2022-11-10T03:04:16.274Z,2.20
2022-11-10T03:07:01.819Z,2.60
2022-11-10T03:09:47.465Z,2.60
2022-11-10T03:12:33.155Z,2.80
2022-11-10T03:15:18.372Z,2.40
2022-11-10T03:18:05.192Z,2.70
2022-11-10T03:20:50.816Z,3.50
2022-11-10T03:23:36.930Z,4.60
2022-11-10T03:26:22.543Z,2.50
2022-11-10T03:29:08.277Z,4.20
2022-11-10T03:31:53.978Z,2.40
2022-11-10T03:34:39.386Z,4.50
2022-11-10T03:37:25.534Z,4.40
2022-11-10T03:40:11.288Z,3.80
2022-11-10T03:42:56.584Z,4.20
2022-11-10T03:45:45.049Z,3.80
2022-11-10T03:48:30.443Z,3.60
2022-11-10T03:51:16.029Z,3.20
2022-11-10T03:54:01.823Z,5.90
2022-11-10T03:56:47.450Z,3.70
2022-11-10T03:59:33.160Z,3.80
2022-11-10T04:02:18.664Z,3.90
2022-11-10T04:05:29.779Z,4.10
2022-11-10T04:08:35.969Z,4.80
2022-11-10T04:11:41.364Z,3.90
2022-11-10T04:14:45.082Z,3.00
2022-11-10T04:17:31.342Z,4.10
2022-11-10T04:20:16.872Z,6.30
2022-11-10T04:23:21.132Z,4.40
2022-11-10T04:26:32.867Z,4.60
2022-11-10T04:29:20.063Z,4.80
2022-11-10T04:32:05.529Z,4.40
2022-11-10T04:34:51.034Z,3.40
2022-11-10T04:37:37.259Z,3.40
2022-11-10T04:40:22.662Z,3.80
2022-11-10T04:43:08.648Z,3.20
2022-11-10T04:45:54.750Z,4.40
2022-11-10T04:48:40.079Z,3.80
2022-11-10T04:51:33.660Z,4.10
2022-11-10T04:54:19.058Z,5.60
2022-11-10T04:57:04.467Z,3.90
2022-11-10T04:59:50.055Z,4.70
2022-11-10T05:02:39.370Z,4.50
2022-11-10T05:05:25.477Z,5.90
2022-11-10T05:08:10.856Z,4.10
2022-11-10T05:10:56.366Z,5.10
2022-11-10T05:13:43.392Z,4.80
2022-11-10T05:16:28.762Z,4.00
2022-11-10T05:19:14.144Z,4.90
2022-11-10T05:21:59.604Z,4.70
2022-11-10T05:24:45.049Z,4.80
2022-11-10T05:27:30.547Z,5.00
2022-11-10T05:30:16.130Z,4.60
2022-11-10T05:33:02.632Z,5.50
2022-11-10T05:35:50.130Z,4.30
2022-11-10T05:38:40.468Z,5.10
2022-11-10T05:41:27.117Z,4.10
2022-11-10T05:44:12.705Z,5.60
2022-11-10T05:46:58.053Z,3.60
2022-11-10T05:49:43.680Z,4.50
2022-11-10T05:52:29.074Z,3.90
2022-11-10T05:55:16.894Z,5.40
2022-11-10T05:58:02.327Z,4.40
2022-11-10T06:00:47.739Z,4.60
2022-11-10T06:03:33.194Z,5.70
2022-11-10T06:06:19.099Z,6.00
2022-11-10T06:09:04.985Z,5.30
2022-11-10T06:11:50.413Z,5.10
2022-11-10T06:14:35.839Z,5.50
2022-11-10T06:17:21.210Z,4.70
2022-11-10T06:20:07.827Z,4.70
2022-11-10T06:23:06.737Z,5.40
2022-11-10T06:25:52.532Z,5.30
2022-11-10T06:28:37.974Z,4.70
2022-11-10T06:31:23.450Z,4.50
2022-11-10T06:34:08.639Z,5.90
2022-11-10T06:36:53.970Z,7.70
2022-11-10T06:39:39.343Z,6.00
2022-11-10T06:42:24.304Z,9.10
2022-11-10T06:45:10.097Z,5.50
2022-11-10T06:48:04.018Z,4.70
2022-11-10T06:50:49.414Z,6.00
2022-11-10T06:53:34.859Z,5.10
2022-11-10T06:56:20.209Z,6.40
2022-11-10T06:59:05.921Z,6.40
2022-11-10T07:01:51.443Z,5.90
2022-11-10T07:04:36.976Z,7.80
2022-11-10T07:07:22.494Z,5.90
2022-11-10T07:10:08.645Z,6.50
2022-11-10T07:12:59.213Z,6.90
2022-11-10T07:15:45.044Z,8.50
2022-11-10T07:18:30.398Z,9.00
2022-11-10T07:21:15.864Z,8.90
2022-11-10T07:24:01.550Z,7.10
2022-11-10T07:26:46.988Z,8.00
2022-11-10T07:29:32.400Z,7.00
2022-11-10T07:32:17.822Z,7.70
2022-11-10T07:35:03.176Z,6.80
2022-11-10T07:37:48.758Z,8.40
2022-11-10T07:40:35.027Z,10.50
2022-11-10T07:43:22.485Z,6.80
2022-11-10T07:46:09.946Z,5.70
2022-11-10T07:48:55.552Z,7.00
2022-11-10T07:51:43.048Z,14.40
2022-11-10T07:54:28.569Z,8.00
2022-11-10T07:57:14.050Z,7.40
2022-11-10T07:59:59.967Z,5.70
2022-11-10T08:02:45.480Z,9.90
2022-11-10T08:05:31.963Z,8.00
2022-11-10T08:08:18.721Z,6.50
2022-11-10T08:11:03.980Z,6.20
2022-11-10T08:13:49.644Z,6.80
2022-11-10T08:16:35.099Z,9.30
2022-11-10T08:19:20.543Z,6.80
2022-11-10T08:22:06.082Z,8.30
2022-11-10T08:24:51.795Z,7.40
2022-11-10T08:27:37.202Z,7.60
2022-11-10T08:30:22.623Z,6.30
2022-11-10T08:33:11.762Z,7.60
2022-11-10T08:35:57.329Z,10.10
2022-11-10T08:38:43.043Z,5.50
2022-11-10T08:41:28.317Z,8.40
2022-11-10T08:44:19.613Z,6.20
2022-11-10T08:47:06.037Z,7.60
2022-11-10T08:49:51.621Z,7.00
2022-11-10T08:52:37.119Z,6.70
2022-11-10T08:55:23.169Z,7.00
2022-11-10T08:58:14.483Z,6.00
2022-11-10T09:00:59.534Z,6.40
2022-11-10T09:03:44.990Z,5.90
2022-11-10T09:06:30.504Z,5.60
2022-11-10T09:09:16.079Z,5.80
2022-11-10T09:12:01.847Z,5.20
2022-11-10T09:14:47.310Z,11.00
2022-11-10T09:17:32.780Z,5.60
2022-11-10T09:20:18.396Z,7.70
2022-11-10T09:23:17.522Z,8.50
2022-11-10T09:26:06.227Z,7.10
2022-11-10T09:28:51.565Z,4.20
2022-11-10T09:31:36.944Z,6.80
2022-11-10T09:34:22.542Z,6.70
2022-11-10T09:37:07.960Z,5.50
2022-11-10T09:39:53.573Z,8.20
2022-11-10T09:42:42.038Z,5.70
2022-11-10T09:45:39.089Z,5.40
2022-11-10T09:48:31.869Z,6.70
2022-11-10T09:51:25.416Z,5.00
2022-11-10T09:54:43.702Z,4.60
2022-11-10T09:57:29.773Z,4.90
2022-11-10T10:00:18.364Z,4.10
2022-11-10T10:03:06.311Z,3.90
2022-11-10T10:06:11.487Z,4.90
2022-11-10T10:09:29.895Z,4.90
2022-11-10T10:12:45.987Z,7.30
2022-11-10T10:16:11.694Z,4.10
2022-11-10T10:19:10.036Z,5.30
2022-11-10T10:22:46.251Z,4.90
2022-11-10T10:25:33.261Z,6.50
2022-11-10T10:28:18.758Z,4.60
2022-11-10T10:31:20.077Z,4.50
2022-11-10T10:34:13.319Z,3.90
2022-11-10T10:36:58.908Z,5.70
2022-11-10T10:39:49.712Z,5.30
2022-11-10T10:42:38.008Z,4.50
2022-11-10T10:45:26.698Z,4.90
2022-11-10T10:48:41.813Z,7.80
2022-11-10T10:51:31.595Z,5.60
2022-11-10T10:54:34.149Z,3.70
2022-11-10T10:57:23.116Z,3.00
2022-11-10T11:00:17.939Z,5.70
2022-11-10T11:03:22.308Z,5.50
2022-11-10T11:06:16.891Z,3.70
2022-11-10T11:09:19.914Z,5.70
2022-11-10T11:12:32.979Z,5.70
2022-11-10T11:15:29.598Z,5.30
2022-11-10T11:18:20.645Z,3.30
2022-11-10T11:21:35.315Z,5.10
2022-11-10T11:24:42.493Z,3.30
2022-11-10T11:27:45.689Z,5.60
2022-11-10T11:31:08.374Z,4.00
2022-11-10T11:34:22.361Z,3.50
2022-11-10T11:37:29.839Z,7.30
2022-11-10T11:40:55.379Z,5.60
2022-11-10T11:44:02.054Z,5.20
2022-11-10T11:47:44.337Z,4.10
2022-11-10T11:50:41.368Z,5.70
2022-11-10T11:54:02.810Z,6.30
2022-11-10T11:56:50.307Z,3.70
2022-11-10T12:00:10.804Z,6.90
2022-11-10T12:03:12.090Z,4.30
2022-11-10T12:06:15.771Z,4.80
2022-11-10T12:09:44.860Z,2.30
2022-11-10T12:13:07.109Z,2.70
2022-11-10T12:16:21.283Z,3.40
2022-11-10T12:19:40.457Z,3.70
2022-11-10T12:22:50.992Z,3.60
2022-11-10T12:26:03.693Z,3.60
2022-11-10T12:29:03.526Z,5.00
2022-11-10T12:31:56.043Z,4.20
2022-11-10T12:34:46.035Z,4.50
2022-11-10T12:37:38.565Z,3.60
2022-11-10T12:40:36.983Z,9.90
2022-11-10T12:43:38.367Z,4.40
2022-11-10T12:46:23.623Z,4.80
2022-11-10T12:49:35.627Z,3.60
2022-11-10T12:52:24.836Z,3.90
2022-11-10T12:55:14.881Z,5.20
2022-11-10T12:58:02.339Z,3.90
2022-11-10T13:01:18.748Z,3.20
2022-11-10T13:04:05.895Z,5.70
2022-11-10T13:06:59.484Z,6.70
2022-11-10T13:09:44.887Z,6.80
2022-11-10T13:12:30.392Z,7.40
2022-11-10T13:15:37.911Z,4.90
2022-11-10T13:18:49.146Z,7.90
2022-11-10T13:22:01.030Z,6.70
2022-11-10T13:24:46.492Z,4.10
2022-11-10T13:27:37.996Z,5.30
2022-11-10T13:30:48.712Z,4.90
2022-11-10T13:33:39.093Z,4.50
2022-11-10T13:36:54.502Z,4.80
2022-11-10T13:39:40.030Z,4.60
2022-11-10T13:42:25.625Z,4.60
2022-11-10T13:45:42.736Z,3.70
2022-11-10T13:48:41.214Z,3.60
2022-11-10T13:51:56.165Z,4.20
2022-11-10T13:55:16.368Z,3.40
2022-11-10T13:58:07.833Z,5.30
2022-11-10T14:01:15.347Z,3.90
2022-11-10T14:04:02.686Z,3.50
2022-11-10T14:06:55.075Z,7.60
2022-11-10T14:09:46.196Z,5.00
2022-11-10T14:13:00.967Z,4.90
2022-11-10T14:15:48.911Z,8.50
2022-11-10T14:18:43.126Z,3.80
2022-11-10T14:21:54.039Z,8.20
2022-11-10T14:24:58.434Z,6.60
2022-11-10T14:27:45.089Z,5.20
2022-11-10T14:30:33.505Z,4.70
2022-11-10T14:33:20.375Z,4.50
2022-11-10T14:36:09.914Z,4.50
2022-11-10T14:38:55.417Z,6.20
2022-11-10T14:41:48.422Z,6.10
2022-11-10T14:44:35.570Z,4.70
2022-11-10T14:47:28.370Z,5.10
2022-11-10T14:50:13.509Z,3.70
2022-11-10T14:53:29.367Z,5.50
2022-11-10T14:56:21.318Z,4.90
2022-11-10T14:59:11.827Z,5.90
2022-11-10T15:02:01.892Z,5.20
2022-11-10T15:04:51.168Z,6.70
2022-11-10T15:07:36.541Z,6.10
2022-11-10T15:10:40.307Z,5.50
2022-11-10T15:13:28.597Z,5.30
2022-11-10T15:16:32.031Z,3.70
2022-11-10T15:19:53.399Z,4.80
2022-11-10T15:22:39.033Z,5.20
2022-11-10T15:25:33.880Z,4.80
2022-11-10T15:28:33.252Z,4.80
2022-11-10T15:31:28.810Z,5.90
2022-11-10T15:34:41.190Z,19.50
2022-11-10T15:37:31.019Z,7.10
2022-11-10T15:40:46.793Z,6.50
2022-11-10T15:43:31.914Z,4.90
2022-11-10T15:46:25.077Z,4.10
2022-11-10T15:49:32.320Z,3.10
2022-11-10T15:52:21.495Z,5.20
2022-11-10T15:55:20.558Z,4.70
2022-11-10T15:58:22.521Z,6.20
2022-11-10T16:01:12.027Z,5.60
2022-11-10T16:03:57.568Z,6.60
2022-11-10T16:06:43.094Z,4.20
2022-11-10T16:09:28.553Z,4.60
2022-11-10T16:12:22.694Z,6.20
2022-11-10T16:15:18.330Z,5.40
2022-11-10T16:18:04.526Z,7.70
2022-11-10T16:20:51.698Z,6.00
2022-11-10T16:23:36.722Z,8.00
2022-11-10T16:26:26.034Z,5.10
2022-11-10T16:29:14.020Z,6.80
2022-11-10T16:31:59.173Z,4.70
2022-11-10T16:34:44.649Z,5.20
2022-11-10T16:37:32.899Z,5.90
2022-11-10T16:40:24.872Z,7.00
2022-11-10T16:43:18.523Z,7.20
2022-11-10T16:46:14.151Z,6.90
2022-11-10T16:49:01.581Z,7.10
2022-11-10T16:51:49.043Z,7.90
2022-11-10T16:54:34.809Z,7.10
2022-11-10T16:57:20.803Z,6.80
2022-11-10T17:00:06.704Z,7.30
2022-11-10T17:03:11.294Z,8.30
2022-11-10T17:05:56.780Z,6.90
2022-11-10T17:08:42.673Z,7.80
2022-11-10T17:11:28.183Z,5.90
2022-11-10T17:14:15.104Z,10.80
2022-11-10T17:17:00.541Z,6.50
2022-11-10T17:19:48.343Z,8.00
2022-11-10T17:22:36.748Z,7.20
2022-11-10T17:25:27.346Z,6.60
2022-11-10T17:28:15.504Z,9.00
2022-11-10T17:31:00.730Z,9.10
2022-11-10T17:33:49.172Z,7.30
2022-11-10T17:36:35.079Z,7.90
2022-11-10T17:39:22.465Z,7.40
2022-11-10T17:42:13.604Z,8.90
2022-11-10T17:44:58.710Z,6.80
2022-11-10T17:47:44.226Z,7.70
2022-11-10T17:50:31.165Z,7.40
2022-11-10T17:53:26.151Z,10.20
2022-11-10T17:56:12.095Z,10.40
2022-11-10T17:58:57.665Z,9.90
2022-11-10T18:01:43.312Z,9.60
2022-11-10T18:04:28.628Z,9.70
2022-11-10T18:07:14.447Z,10.60
2022-11-10T18:09:59.916Z,9.40
2022-11-10T18:12:45.465Z,9.80
2022-11-10T18:15:31.435Z,10.20
2022-11-10T18:18:17.978Z,10.80
2022-11-10T18:21:05.594Z,12.60
2022-11-10T18:23:50.851Z,10.80
2022-11-10T18:26:35.942Z,11.60
2022-11-10T18:29:21.314Z,11.00
2022-11-10T18:32:06.980Z,11.70
2022-11-10T18:34:52.368Z,10.80
2022-11-10T18:37:39.212Z,12.50
2022-11-10T18:40:25.265Z,10.40
2022-11-10T18:43:10.518Z,12.30
2022-11-10T18:45:56.048Z,12.10
2022-11-10T18:48:41.368Z,13.90
2022-11-10T18:51:27.448Z,12.90
2022-11-10T18:54:13.106Z,13.90
2022-11-10T18:56:58.395Z,14.00
2022-11-10T18:59:43.836Z,13.20
2022-11-10T19:02:29.027Z,13.50
2022-11-10T19:05:14.310Z,10.60
2022-11-10T19:07:59.769Z,11.40
2022-11-10T19:10:44.988Z,11.00
2022-11-10T19:13:30.454Z,11.50
2022-11-10T19:16:19.037Z,13.30
2022-11-10T19:19:04.543Z,11.60
2022-11-10T19:21:49.977Z,11.00
2022-11-10T19:24:53.631Z,9.10
2022-11-10T19:27:41.534Z,9.80
2022-11-10T19:30:26.898Z,10.20
2022-11-10T19:33:12.268Z,10.20
2022-11-10T19:36:10.771Z,10.00
2022-11-10T19:38:56.960Z,10.00
2022-11-10T19:41:42.387Z,11.60
2022-11-10T19:44:27.867Z,13.70
2022-11-10T19:47:13.181Z,10.10
2022-11-10T19:49:58.545Z,9.90
2022-11-10T19:52:43.846Z,10.00
2022-11-10T19:55:32.592Z,12.00
2022-11-10T19:58:18.307Z,11.60
2022-11-10T20:01:06.111Z,11.30
2022-11-10T20:03:51.772Z,11.40
2022-11-10T20:06:37.206Z,15.10
2022-11-10T20:09:22.644Z,11.10
2022-11-10T20:12:08.497Z,11.00
2022-11-10T20:14:53.725Z,11.00
2022-11-10T20:17:39.028Z,11.30
2022-11-10T20:20:24.354Z,10.80
2022-11-10T20:23:12.068Z,13.40
2022-11-10T20:26:19.161Z,12.20
2022-11-10T20:29:04.646Z,8.90
2022-11-10T20:31:50.160Z,11.10
2022-11-10T20:34:35.543Z,12.40
2022-11-10T20:37:20.902Z,11.70
2022-11-10T20:40:37.858Z,12.10
2022-11-10T20:43:14.937Z,13.70
2022-11-10T20:46:00.927Z,12.50
2022-11-10T20:48:47.017Z,17.20
2022-11-10T20:51:32.509Z,9.20
2022-11-10T20:54:18.055Z,11.80
2022-11-10T20:57:03.690Z,9.50
2022-11-10T20:59:49.165Z,13.00
2022-11-10T21:02:34.587Z,11.00
2022-11-10T21:05:19.977Z,12.00
2022-11-10T21:08:05.665Z,11.30
2022-11-10T21:10:53.791Z,10.40
2022-11-10T21:13:42.137Z,10.80
2022-11-10T21:16:28.150Z,12.40
2022-11-10T21:19:13.251Z,11.20
2022-11-10T21:21:58.720Z,11.70
2022-11-10T21:24:44.341Z,12.60
2022-11-10T21:27:29.811Z,12.10
2022-11-10T21:30:23.012Z,12.30
2022-11-10T21:33:08.015Z,11.30
2022-11-10T21:35:53.364Z,11.70
2022-11-10T21:38:38.821Z,12.30
2022-11-10T21:41:24.799Z,10.00
2022-11-10T21:44:10.091Z,13.10
2022-11-10T21:46:55.761Z,10.90
2022-11-10T21:49:45.198Z,11.20
2022-11-10T21:52:35.104Z,11.00
2022-11-10T21:55:20.324Z,9.70
2022-11-10T21:58:05.980Z,10.50
2022-11-10T22:00:51.104Z,11.80
2022-11-10T22:03:37.264Z,12.40
2022-11-10T22:06:23.008Z,13.30
2022-11-10T22:09:08.414Z,12.80
2022-11-10T22:12:12.367Z,11.10
2022-11-10T22:15:16.285Z,14.60
2022-11-10T22:18:20.923Z,12.30
2022-11-10T22:21:08.338Z,10.80
2022-11-10T22:24:12.847Z,11.90
2022-11-10T22:27:04.071Z,12.20
2022-11-10T22:29:49.465Z,9.10
2022-11-10T22:32:34.927Z,10.60
2022-11-10T22:35:39.078Z,10.90
2022-11-10T22:38:25.526Z,10.10
2022-11-10T22:41:35.057Z,8.80
2022-11-10T22:44:24.858Z,9.70
2022-11-10T22:47:10.579Z,9.50
2022-11-10T22:49:56.104Z,10.80
2022-11-10T22:52:41.590Z,8.40
2022-11-10T22:55:26.895Z,9.90
2022-11-10T22:58:12.051Z,10.30
2022-11-10T23:01:09.545Z,8.80
2022-11-10T23:03:58.384Z,9.60
2022-11-10T23:06:43.843Z,8.60
2022-11-10T23:09:29.471Z,9.30
2022-11-10T23:12:14.976Z,12.10
2022-11-10T23:15:00.197Z,10.40
2022-11-10T23:17:45.670Z,10.50
2022-11-10T23:20:31.106Z,9.80
2022-11-10T23:23:16.657Z,9.40
2022-11-10T23:26:05.413Z,12.00
2022-11-10T23:28:52.800Z,9.90
2022-11-10T23:31:38.169Z,8.40
2022-11-10T23:34:23.507Z,8.80
2022-11-10T23:37:09.015Z,8.50
2022-11-10T23:39:54.463Z,8.70
2022-11-10T23:42:39.861Z,8.80
2022-11-10T23:45:29.743Z,8.20
2022-11-10T23:48:23.021Z,8.50
2022-11-10T23:51:12.594Z,8.40
2022-11-10T23:53:58.249Z,8.30
2022-11-10T23:56:43.535Z,11.70
2022-11-10T23:59:29.340Z,9.80
